Time;durP1;ratioP1;P1;durP2;ratioP2;P2;SDS_P1;SDS_P2;PMS_P1;PMS_P2;Temp;Humidity;BMP_temperature;BMP_pressure;BME280_temperature;BME280_humidity;BME280_pressure;Samples;Min_cycle;Max_cycle;Signal;HPM_P1;HPM_P2
2022/08/11 00:00:11;;;;;;;5.65;2.25;;;;;;;15.69;100.00;96248.75;1015779;29;20097;-71
2022/08/11 00:00:42;;;;;;;7.22;2.40;;;;;;;15.63;100.00;96240.06;1022221;29;20371;-72
2022/08/11 00:01:17;;;;;;;5.32;2.38;;;;;;;15.61;100.00;96231.63;1021857;29;20030;-72
2022/08/11 00:01:57;;;;;;;3.53;2.03;;;;;;;15.65;100.00;96240.56;1018641;29;20055;-72
2022/08/11 00:02:45;;;;;;;2.97;1.83;;;;;;;15.60;100.00;96235.34;1017010;29;20035;-73
2022/08/11 00:03:15;;;;;;;2.97;1.98;;;;;;;15.65;100.00;96239.78;1018221;29;20031;-72
2022/08/11 00:03:53;;;;;;;3.92;2.33;;;;;;;15.68;100.00;96241.88;1025862;28;20015;-72
2022/08/11 00:04:25;;;;;;;4.45;2.15;;;;;;;15.59;100.00;96238.25;1018359;29;20042;-71
2022/08/11 00:04:55;;;;;;;2.88;1.98;;;;;;;15.62;100.00;96238.47;1022311;29;20034;-71
2022/08/11 00:05:26;;;;;;;3.88;2.00;;;;;;;15.67;100.00;96250.91;1015015;29;20098;-72
2022/08/11 00:05:57;;;;;;;3.95;2.45;;;;;;;15.67;100.00;96251.69;1018597;29;20691;-71
2022/08/11 00:06:31;;;;;;;3.45;2.00;;;;;;;15.66;100.00;96242.19;1022405;28;20549;-74
2022/08/11 00:07:02;;;;;;;3.50;1.98;;;;;;;15.66;100.00;96247.47;1023090;28;20095;-70
2022/08/11 00:07:34;;;;;;;4.43;2.40;;;;;;;15.59;100.00;96236.38;1022373;29;20063;-71
2022/08/11 00:08:04;;;;;;;3.70;2.15;;;;;;;15.64;100.00;96248.78;1022477;28;20024;-71
2022/08/11 00:08:34;;;;;;;3.03;1.95;;;;;;;15.61;100.00;96233.47;1018649;29;20671;-73
2022/08/11 00:09:31;;;;;;;2.88;1.88;;;;;;;15.64;100.00;96244.28;1019579;29;20023;-71
2022/08/11 00:10:01;;;;;;;3.85;2.15;;;;;;;15.63;100.00;96255.16;1019118;29;20107;-71
2022/08/11 00:10:35;;;;;;;2.65;1.83;;;;;;;15.57;100.00;96241.19;1014684;29;20024;-71
2022/08/11 00:11:10;;;;;;;3.45;2.25;;;;;;;15.60;100.00;96247.78;1029441;28;20026;-72
2022/08/11 00:11:45;;;;;;;5.15;2.22;;;;;;;15.60;100.00;96245.13;1023460;28;20050;-72
2022/08/11 00:12:15;;;;;;;4.80;2.38;;;;;;;15.55;100.00;96236.16;1018428;29;20035;-71
2022/08/11 00:12:58;;;;;;;4.43;2.15;;;;;;;15.57;100.00;96239.34;1021943;29;20023;-72
2022/08/11 00:13:35;;;;;;;2.60;1.90;;;;;;;15.59;100.00;96246.97;1021175;29;20492;-71
2022/08/11 00:14:16;;;;;;;4.65;2.22;;;;;;;15.53;100.00;96232.25;1023106;28;20516;-73
2022/08/11 00:14:54;;;;;;;3.75;2.20;;;;;;;15.56;100.00;96245.69;1026133;28;20112;-72
2022/08/11 00:15:26;;;;;;;5.90;2.17;;;;;;;15.49;100.00;96237.31;1026066;28;20086;-71
2022/08/11 00:15:57;;;;;;;3.95;2.40;;;;;;;15.49;100.00;96242.59;1028410;28;20054;-71
2022/08/11 00:16:27;;;;;;;2.97;2.17;;;;;;;15.52;100.00;96233.31;1022297;28;20030;-72
2022/08/11 00:17:02;;;;;;;2.80;2.05;;;;;;;15.54;100.00;96241.75;1018576;29;20027;-71
2022/08/11 00:17:33;;;;;;;6.18;2.60;;;;;;;15.54;100.00;96254.97;1023521;28;20110;-72
2022/08/11 00:18:04;;;;;;;7.00;2.38;;;;;;;15.54;100.00;96245.19;1026363;28;20042;-71
2022/08/11 00:18:40;;;;;;;3.35;2.40;;;;;;;15.52;100.00;96249.94;1023749;28;20416;-71
2022/08/11 00:19:10;;;;;;;2.95;2.30;;;;;;;15.53;100.00;96250.78;1022231;29;20063;-71
2022/08/11 00:19:43;;;;;;;5.53;2.00;;;;;;;15.47;100.00;96241.31;1023298;28;20501;-72
2022/08/11 00:20:14;;;;;;;4.13;2.25;;;;;;;15.50;100.00;96251.31;1022467;29;20118;-70
2022/08/11 00:20:44;;;;;;;8.20;2.50;;;;;;;15.49;100.00;96247.91;1018319;29;20056;-71
2022/08/11 00:21:15;;;;;;;5.25;2.20;;;;;;;15.49;100.00;96249.72;1014004;29;20024;-71
2022/08/11 00:21:45;;;;;;;5.50;2.50;;;;;;;15.46;100.00;96255.56;1014260;29;20064;-72
2022/08/11 00:22:20;;;;;;;3.20;2.33;;;;;;;15.43;100.00;96241.09;1016390;29;20406;-72
2022/08/11 00:22:50;;;;;;;2.70;2.20;;;;;;;15.44;100.00;96241.88;1019106;29;20036;-71
2022/08/11 00:23:21;;;;;;;2.72;1.83;;;;;;;15.41;100.00;96237.13;1019193;29;20027;-72
2022/08/11 00:23:58;;;;;;;3.00;2.33;;;;;;;15.46;100.00;96245.00;1018792;28;20063;-72
2022/08/11 00:24:37;;;;;;;5.85;2.25;;;;;;;15.40;100.00;96238.22;1023427;28;20079;-72
2022/08/11 00:25:14;;;;;;;6.30;2.60;;;;;;;15.41;100.00;96242.41;1022145;29;20031;-72
2022/08/11 00:25:46;;;;;;;4.38;2.30;;;;;;;15.44;100.00;96244.50;1024620;28;20082;-71
2022/08/11 00:26:16;;;;;;;4.25;2.20;;;;;;;15.46;100.00;96251.09;1022198;28;20867;-71
2022/08/11 00:26:51;;;;;;;4.70;2.20;;;;;;;15.48;100.00;96253.44;1018477;29;20083;-72
2022/08/11 00:27:34;;;;;;;3.28;2.22;;;;;;;15.46;100.00;96251.09;1016724;29;20034;-69
2022/08/11 00:28:22;;;;;;;3.95;2.45;;;;;;;15.46;100.00;96247.66;1020850;29;20031;-71
2022/08/11 00:28:52;;;;;;;4.50;2.42;;;;;;;15.44;100.00;96245.28;1030531;28;20061;-71
2022/08/11 00:29:23;;;;;;;4.30;1.98;;;;;;;15.44;100.00;96252.44;1022501;29;20019;-71
2022/08/11 00:29:53;;;;;;;2.45;1.90;;;;;;;15.42;100.00;96244.78;1024921;28;20086;-71
2022/08/11 00:30:24;;;;;;;5.80;2.70;;;;;;;15.42;100.00;96244.78;1028920;28;20030;-71
2022/08/11 00:30:55;;;;;;;4.78;2.20;;;;;;;15.41;100.00;96247.72;1022258;28;20505;-71
2022/08/11 00:31:30;;;;;;;5.18;2.50;;;;;;;15.37;100.00;96230.84;1025504;28;20030;-71
2022/08/11 00:32:02;;;;;;;2.80;2.30;;;;;;;15.39;100.00;96239.25;1021636;29;20063;-71
2022/08/11 00:32:33;;;;;;;2.45;2.00;;;;;;;15.41;100.00;96242.41;1023197;28;20062;-72
2022/08/11 00:33:04;;;;;;;2.50;2.28;;;;;;;15.40;100.00;96241.63;1018370;29;20409;-71
2022/08/11 00:33:38;;;;;;;3.92;2.38;;;;;;;15.40;100.00;96246.16;1018492;29;20028;-72
2022/08/11 00:34:10;;;;;;;3.15;2.45;;;;;;;15.36;100.00;96240.63;1026121;28;20014;-72
2022/08/11 00:34:40;;;;;;;2.92;2.15;;;;;;;15.37;100.00;96246.69;1018079;29;20106;-71
2022/08/11 00:35:13;;;;;;;4.88;2.47;;;;;;;15.36;100.00;96245.09;1018425;29;20064;-72
2022/08/11 00:35:43;;;;;;;7.22;2.70;;;;;;;15.32;100.00;96239.59;1017534;29;20035;-72
2022/08/11 00:36:15;;;;;;;4.15;2.45;;;;;;;15.37;100.00;96238.78;1022260;29;20075;-72
2022/08/11 00:36:52;;;;;;;4.85;2.58;;;;;;;15.32;100.00;96240.41;1018260;29;20027;-72
2022/08/11 00:37:23;;;;;;;4.03;2.38;;;;;;;15.31;100.00;96232.72;1017845;29;20032;-73
2022/08/11 00:37:53;;;;;;;5.82;2.65;;;;;;;15.36;100.00;96250.41;1018735;29;20676;-72
2022/08/11 00:38:25;;;;;;;4.00;2.17;;;;;;;15.32;100.00;96240.41;1018411;29;20066;-71
2022/08/11 00:39:03;;;;;;;2.70;2.33;;;;;;;15.36;100.00;96245.09;1018512;29;20059;-72
2022/08/11 00:39:41;;;;;;;4.78;2.30;;;;;;;15.30;100.00;96226.66;1022483;29;20027;-73
2022/08/11 00:40:17;;;;;;;2.25;2.05;;;;;;;15.38;100.00;96242.97;1018435;29;20039;-72
2022/08/11 00:40:54;;;;;;;4.30;2.28;;;;;;;15.37;100.00;96241.41;1018361;28;20028;-74
2022/08/11 00:41:33;;;;;;;5.13;2.33;;;;;;;15.37;100.00;96241.41;1020479;29;20039;-73
2022/08/11 00:42:42;;;;;;;5.72;2.40;;;;;;;15.37;100.00;96241.41;1025299;28;20045;-72
2022/08/11 00:43:43;;;;;;;5.32;2.30;;;;;;;15.35;100.00;96243.53;1020129;29;20055;-72
2022/08/11 00:44:42;;;;;;;6.18;2.22;;;;;;;15.33;100.00;96239.31;1013475;29;20031;-72
2022/08/11 00:45:21;;;;;;;4.40;2.15;;;;;;;15.33;100.00;96239.31;1011418;29;20066;-71
2022/08/11 00:46:17;;;;;;;3.50;2.30;;;;;;;15.36;100.00;96237.19;1027735;28;20031;-72
2022/08/11 00:47:04;;;;;;;3.88;2.38;;;;;;;15.37;100.00;96241.41;1034356;28;20030;-73
2022/08/11 00:47:59;;;;;;;2.53;2.00;;;;;;;15.37;100.00;96239.56;1030277;28;20558;-73
2022/08/11 00:49:12;;;;;;;5.28;2.15;;;;;;;15.42;100.00;96239.47;1030374;28;20088;-72
2022/08/11 00:50:02;;;;;;;2.90;2.28;;;;;;;15.41;100.00;96240.56;1030353;28;20043;-74
2022/08/11 00:50:50;;;;;;;5.53;2.38;;;;;;;15.43;100.00;96240.28;1030436;28;20033;-73
2022/08/11 00:51:35;;;;;;;3.85;2.17;;;;;;;15.45;100.00;96232.84;1029490;28;20532;-71
2022/08/11 00:52:21;;;;;;;5.47;2.05;;;;;;;15.43;100.00;96229.72;1026316;28;20535;-72
2022/08/11 00:53:18;;;;;;;5.32;2.25;;;;;;;15.41;100.00;96235.28;1030046;28;20396;-72
2022/08/11 00:54:17;;;;;;;5.43;2.13;;;;;;;15.43;100.00;96237.66;1027951;28;20050;-72
2022/08/11 00:54:53;;;;;;;3.47;2.17;;;;;;;15.44;100.00;96239.22;1028709;28;20061;-72
2022/08/11 00:56:11;;;;;;;3.05;2.50;;;;;;;15.44;100.00;96234.72;1034211;28;20212;-72
2022/08/11 00:57:12;;;;;;;2.97;2.05;;;;;;;15.42;100.00;96231.56;1034210;28;20646;-71
2022/08/11 00:58:04;;;;;;;5.68;2.60;;;;;;;15.44;100.00;96233.94;1034087;28;20022;-71
2022/08/11 00:59:11;;;;;;;5.85;2.30;;;;;;;15.41;100.00;96239.78;1030066;28;20041;-71
2022/08/11 01:00:01;;;;;;;7.82;2.85;;;;;;;15.37;100.00;96236.91;1031878;28;20128;-72
2022/08/11 01:00:33;;;;;;;2.22;2.00;;;;;;;15.37;100.00;96238.78;1034164;28;20038;-73
2022/08/11 01:01:15;;;;;;;3.47;2.50;;;;;;;15.37;100.00;96230.84;1029583;28;20053;-71
2022/08/11 01:01:48;;;;;;;5.18;2.33;;;;;;;15.35;100.00;96238.25;1025581;28;20027;-71
2022/08/11 01:02:24;;;;;;;4.68;2.38;;;;;;;15.33;100.00;96231.41;1024516;28;20104;-72
2022/08/11 01:03:17;;;;;;;5.05;2.30;;;;;;;15.34;100.00;96232.19;1016362;29;20036;-71
2022/08/11 01:04:03;;;;;;;3.13;2.40;;;;;;;15.33;100.00;96234.03;1022098;29;20447;-72
2022/08/11 01:04:55;;;;;;;5.85;2.47;;;;;;;15.35;100.00;96232.97;1024505;28;20050;-73
2022/08/11 01:06:01;;;;;;;3.50;2.22;;;;;;;15.33;100.00;96239.31;1033950;28;20036;-72
2022/08/11 01:06:50;;;;;;;3.90;2.33;;;;;;;15.31;100.00;96232.72;1032373;28;20850;-72
2022/08/11 01:07:35;;;;;;;3.47;2.60;;;;;;;15.28;100.00;96247.28;1031552;28;20033;-73
2022/08/11 01:08:20;;;;;;;5.63;2.50;;;;;;;15.30;100.00;96239.88;1034241;28;20030;-72
2022/08/11 01:09:11;;;;;;;2.67;2.15;;;;;;;15.29;100.00;96240.97;1034196;28;20113;-72
2022/08/11 01:09:50;;;;;;;5.90;2.40;;;;;;;15.27;100.00;96243.09;1030013;28;20104;-72
2022/08/11 01:10:50;;;;;;;6.85;2.17;;;;;;;15.25;100.00;96244.44;1029468;28;20037;-72
2022/08/11 01:11:50;;;;;;;4.43;2.72;;;;;;;15.22;100.00;96237.84;1026890;28;20110;-72
2022/08/11 01:12:41;;;;;;;3.60;2.40;;;;;;;15.22;100.00;96232.53;1021953;29;20027;-71
2022/08/11 01:13:35;;;;;;;8.80;2.67;;;;;;;15.22;100.00;96232.53;1026760;28;20031;-73
2022/08/11 01:14:23;;;;;;;7.20;2.58;;;;;;;15.20;100.00;96232.06;1026725;28;20077;-73
2022/08/11 01:15:39;;;;;;;7.22;2.95;;;;;;;15.20;100.00;96234.69;1027963;28;20084;-72
2022/08/11 01:16:15;;;;;;;3.58;2.47;;;;;;;15.18;100.00;96234.19;1034588;28;20606;-72
2022/08/11 01:17:03;;;;;;;4.13;2.20;;;;;;;15.17;100.00;96235.25;1034550;28;20034;-72
2022/08/11 01:18:13;;;;;;;4.40;2.63;;;;;;;15.17;100.00;96231.81;1030327;28;20031;-71
2022/08/11 01:18:55;;;;;;;4.25;2.03;;;;;;;15.15;100.00;96228.66;1026256;28;20065;-72
2022/08/11 01:19:45;;;;;;;4.63;2.78;;;;;;;15.15;100.00;96234.72;1028944;28;20117;-72
2022/08/11 01:20:57;;;;;;;4.03;2.67;;;;;;;15.17;100.00;96231.81;1028937;28;20026;-72
2022/08/11 01:22:05;;;;;;;7.18;2.67;;;;;;;15.14;100.00;96235.81;1017389;29;20035;-73
2022/08/11 01:22:39;;;;;;;4.35;2.85;;;;;;;15.13;100.00;96234.25;1026060;28;20634;-71
2022/08/11 01:23:32;;;;;;;3.95;2.60;;;;;;;15.12;100.00;96232.66;1027545;28;20025;-72
2022/08/11 01:24:27;;;;;;;3.95;2.30;;;;;;;15.12;100.00;96237.94;1021844;28;20050;-72
2022/08/11 01:25:41;;;;;;;2.92;2.22;;;;;;;15.08;100.00;96224.50;1024400;28;20039;-72
2022/08/11 01:26:40;;;;;;;4.53;2.70;;;;;;;15.07;100.00;96228.22;1021993;29;20031;-71
2022/08/11 01:27:12;;;;;;;5.15;2.40;;;;;;;15.07;100.00;96230.06;1021976;28;20074;-71
2022/08/11 01:28:20;;;;;;;5.32;2.08;;;;;;;15.12;100.00;96229.22;1021764;29;20650;-72
2022/08/11 01:29:10;;;;;;;2.33;1.90;;;;;;;15.09;100.00;96225.31;1023455;28;20026;-72
2022/08/11 01:30:02;;;;;;;2.88;2.40;;;;;;;15.12;100.00;96227.34;1029767;28;20024;-72
2022/08/11 01:31:27;;;;;;;4.72;2.15;;;;;;;15.13;100.00;96230.81;1027407;28;20073;-72
2022/08/11 01:32:51;;;;;;;6.28;2.35;;;;;;;15.15;100.00;96228.66;1017648;29;20677;-72
2022/08/11 01:33:48;;;;;;;3.30;2.30;;;;;;;15.13;100.00;96228.97;1006342;29;20021;-72
2022/08/11 01:34:25;;;;;;;5.68;2.63;;;;;;;15.14;100.00;96230.53;1018034;28;20032;-72
2022/08/11 01:35:42;;;;;;;5.28;2.40;;;;;;;15.11;100.00;96233.72;1025852;28;20076;-72
2022/08/11 01:36:50;;;;;;;4.47;2.55;;;;;;;15.12;100.00;96229.22;1009990;29;20052;-74
2022/08/11 01:37:23;;;;;;;2.92;2.22;;;;;;;15.11;100.00;96222.38;1011466;29;20047;-72
2022/08/11 01:38:28;;;;;;;3.63;2.40;;;;;;;15.06;100.00;96226.63;1014266;29;20541;-72
2022/08/11 01:39:07;;;;;;;6.32;2.80;;;;;;;15.03;100.00;96229.06;1013534;29;20060;-72
2022/08/11 01:40:04;;;;;;;6.38;2.38;;;;;;;15.05;100.00;96235.63;1030037;28;20054;-72
2022/08/11 01:40:34;;;;;;;4.20;2.65;;;;;;;15.06;100.00;96233.78;1023127;28;20504;-72
2022/08/11 01:41:08;;;;;;;4.03;2.53;;;;;;;15.06;100.00;96233.78;1030864;28;20026;-72
2022/08/11 01:44:36;;;;;;;2.65;2.42;;;;;;;15.01;100.00;96225.88;1029975;28;20520;-71
2022/08/11 01:45:15;;;;;;;3.58;2.30;;;;;;;15.01;100.00;96223.25;1030277;28;20022;-71
2022/08/11 01:46:16;;;;;;;5.90;2.63;;;;;;;15.02;100.00;96230.09;1030229;28;20669;-71
2022/08/11 01:46:57;;;;;;;4.65;2.50;;;;;;;15.02;100.00;96225.63;1027489;28;20093;-72
2022/08/11 01:47:50;;;;;;;;;;;;;;;15.01;100.00;96223.25;1026730;28;20058;-72
2022/08/11 01:48:45;;;;;;;5.00;2.85;;;;;;;15.00;100.00;96226.97;1029264;28;19910;-71
2022/08/11 01:49:42;;;;;;;7.47;3.20;;;;;;;14.99;100.00;96220.06;1032989;28;20022;-70
2022/08/11 01:50:45;;;;;;;4.47;2.90;;;;;;;14.98;100.00;96221.16;1034102;28;20037;-72
2022/08/11 01:51:29;;;;;;;8.57;2.83;;;;;;;14.99;100.00;96220.06;1033305;28;20044;-70
2022/08/11 01:52:07;;;;;;;3.55;2.50;;;;;;;14.99;100.00;96225.38;1032050;28;20496;-72
2022/08/11 01:52:53;;;;;;;3.47;2.88;;;;;;;14.97;100.00;96222.22;1029956;28;20129;-72
2022/08/11 01:53:41;;;;;;;2.90;2.60;;;;;;;14.95;100.00;96222.50;1034220;28;20048;-72
2022/08/11 01:54:19;;;;;;;3.42;2.58;;;;;;;14.97;100.00;96222.22;1030291;28;20102;-72
2022/08/11 01:55:11;;;;;;;4.70;2.70;;;;;;;14.94;100.00;96223.56;1026015;28;20023;-72
2022/08/11 01:56:04;;;;;;;2.53;2.33;;;;;;;14.95;100.00;96222.50;1021753;29;20082;-72
2022/08/11 01:56:49;;;;;;;4.18;2.45;;;;;;;14.97;100.00;96216.94;1023990;28;20050;-71
2022/08/11 01:57:28;;;;;;;4.60;2.53;;;;;;;14.97;100.00;96223.00;1022257;29;20027;-73
2022/08/11 01:58:16;;;;;;;4.30;2.80;;;;;;;14.96;100.00;96218.03;1027648;28;20660;-72
2022/08/11 01:59:06;;;;;;;3.15;2.67;;;;;;;14.95;100.00;96213.78;1029676;28;20018;-72
2022/08/11 01:59:47;;;;;;;4.75;2.90;;;;;;;14.95;100.00;96221.72;1029389;28;20030;-73
2022/08/11 02:00:23;;;;;;;3.42;2.55;;;;;;;14.91;100.00;96213.56;1026000;28;20039;-72
2022/08/11 02:01:15;;;;;;;6.68;2.70;;;;;;;15.00;100.00;96227.75;1022383;28;20035;-72
2022/08/11 02:02:13;;;;;;;2.63;2.25;;;;;;;14.99;100.00;96220.06;1013659;29;20047;-71
2022/08/11 02:02:55;;;;;;;5.80;2.70;;;;;;;14.93;100.00;96213.28;1024890;28;20031;-72
2022/08/11 02:03:54;;;;;;;4.53;2.33;;;;;;;14.97;100.00;96216.94;1025907;28;20027;-72
2022/08/11 02:04:54;;;;;;;3.55;2.97;;;;;;;14.95;100.00;96219.06;1021025;29;20082;-71
2022/08/11 02:05:33;;;;;;;4.38;2.55;;;;;;;14.95;100.00;96219.06;1029433;28;20060;-72
2022/08/11 02:06:53;;;;;;;7.95;2.97;;;;;;;14.93;100.00;96216.72;1034086;28;20715;-72
2022/08/11 02:08:02;;;;;;;4.32;2.60;;;;;;;14.90;100.00;96211.97;1030136;28;20084;-73
2022/08/11 02:08:44;;;;;;;2.72;2.42;;;;;;;14.87;100.00;96209.09;1030051;28;20072;-72
2022/08/11 02:09:19;;;;;;;6.90;2.55;;;;;;;14.88;100.00;96215.97;1034243;28;20472;-73
2022/08/11 02:09:55;;;;;;;3.78;2.72;;;;;;;14.85;100.00;96210.19;1029989;28;20766;-72
2022/08/11 02:11:39;;;;;;;5.38;2.70;;;;;;;14.81;100.00;96214.41;1026265;28;20038;-71
2022/08/11 02:12:17;;;;;;;5.88;2.80;;;;;;;14.74;100.00;96198.09;1022621;28;20031;-71
2022/08/11 02:12:53;;;;;;;5.20;2.70;;;;;;;14.78;100.00;96204.41;1018181;29;20109;-71
2022/08/11 02:13:55;;;;;;;5.70;2.75;;;;;;;14.77;100.00;96202.84;1016682;29;20048;-73
2022/08/11 02:14:44;;;;;;;6.03;2.58;;;;;;;14.79;100.00;96205.22;1022671;28;20511;-73
2022/08/11 02:15:37;;;;;;;5.28;2.72;;;;;;;14.76;100.00;96217.13;1028769;28;20019;-73
2022/08/11 02:16:16;;;;;;;7.47;2.70;;;;;;;14.74;100.00;96207.88;1029555;28;20026;-72
2022/08/11 02:16:47;;;;;;;6.32;2.45;;;;;;;14.72;100.00;96208.19;1029684;28;20106;-72
2022/08/11 02:17:29;;;;;;;5.72;2.40;;;;;;;14.72;100.00;96205.53;1030089;28;20022;-72
2022/08/11 02:23:38;;;;;;;7.95;2.67;;;;;;;14.69;100.00;96211.38;1022100;29;20468;-72
2022/08/11 02:23:38;;;;;;;5.80;2.47;;;;;;;14.62;100.00;96205.63;1030096;28;20026;-72
2022/08/11 02:24:16;;;;;;;5.63;2.63;;;;;;;14.61;100.00;96204.03;1026105;28;20496;-72
2022/08/11 02:25:09;;;;;;;6.00;2.88;;;;;;;14.60;100.00;96207.75;1022143;28;20117;-72
2022/08/11 02:26:02;;;;;;;14.63;3.08;;;;;;;14.57;100.00;96208.28;1021878;29;20027;-73
2022/08/11 02:26:41;;;;;;;13.93;3.30;;;;;;;14.56;100.00;96206.72;1017885;29;20055;-72
2022/08/11 02:27:22;;;;;;;8.98;3.03;;;;;;;14.53;100.00;96205.41;1019570;28;20031;-72
2022/08/11 02:28:10;;;;;;;5.93;2.97;;;;;;;14.47;100.00;96203.84;1027300;28;20560;-72
2022/08/11 02:28:48;;;;;;;6.63;2.38;;;;;;;14.49;100.00;96216.78;1026128;28;20023;-72
2022/08/11 02:29:26;;;;;;;5.10;2.80;;;;;;;14.48;100.00;96209.91;1025700;28;20026;-72
2022/08/11 02:30:09;;;;;;;3.30;2.50;;;;;;;14.48;100.00;96208.06;1030940;28;20026;-72
2022/08/11 02:33:21;;;;;;;4.85;3.08;;;;;;;14.48;100.00;96212.53;1025441;28;20037;-72
2022/08/11 02:33:36;;;;;;;;;;;;;;;14.42;100.00;96200.44;1026453;28;20027;-72
2022/08/11 02:34:47;;;;;;;4.68;2.80;;;;;;;14.42;100.00;96211.81;1023896;28;19953;-71
2022/08/11 02:35:41;;;;;;;7.03;2.80;;;;;;;14.39;100.00;96213.16;1028346;28;20023;-72
2022/08/11 02:36:20;;;;;;;4.05;3.08;;;;;;;14.35;100.00;96192.81;1030690;28;20027;-72
2022/08/11 02:36:55;;;;;;;3.85;2.65;;;;;;;14.32;100.00;96201.31;1022995;29;20445;-73
2022/08/11 02:37:31;;;;;;;5.25;2.72;;;;;;;14.38;100.00;96203.66;1018473;29;20887;-72
2022/08/11 02:38:28;;;;;;;4.20;2.75;;;;;;;14.37;100.00;96209.97;1021866;29;20536;-72
2022/08/11 02:39:09;;;;;;;4.82;3.15;;;;;;;14.35;100.00;96201.56;1027634;28;20051;-71
2022/08/11 02:39:45;;;;;;;5.00;2.60;;;;;;;14.35;100.00;96209.47;1030851;28;20030;-72
2022/08/11 02:40:42;;;;;;;7.35;3.15;;;;;;;14.35;100.00;96204.19;1030906;28;20061;-71
2022/08/11 02:42:44;;;;;;;4.63;2.95;;;;;;;14.30;100.00;96204.22;1035314;28;20558;-73
2022/08/11 02:43:40;;;;;;;7.15;2.90;;;;;;;14.26;100.00;96203.19;1030905;28;20026;-72
2022/08/11 02:44:32;;;;;;;4.25;2.80;;;;;;;14.22;100.00;96207.47;1026402;28;20030;-73
2022/08/11 02:45:11;;;;;;;4.78;2.75;;;;;;;14.22;100.00;96207.47;1028999;28;20019;-72
2022/08/11 02:45:53;;;;;;;4.65;2.92;;;;;;;14.18;100.00;96195.84;1030523;28;20591;-72
2022/08/11 02:46:30;;;;;;;3.42;2.50;;;;;;;14.19;100.00;96202.72;1022751;28;20669;-73
2022/08/11 02:47:17;;;;;;;5.13;2.60;;;;;;;14.14;100.00;96200.09;1026405;28;20584;-72
2022/08/11 02:49:59;;;;;;;4.53;2.50;;;;;;;14.14;100.00;96203.53;1028642;28;20066;-73
2022/08/11 02:50:30;;;;;;;8.68;3.45;;;;;;;14.11;100.00;96203.28;1031096;28;20021;-71
2022/08/11 02:51:22;;;;;;;5.32;2.58;;;;;;;14.11;100.00;96205.91;1031157;28;20058;-72
2022/08/11 02:52:08;;;;;;;4.05;2.58;;;;;;;14.06;100.00;96203.31;1034980;28;20687;-72
2022/08/11 02:53:23;;;;;;;5.72;3.05;;;;;;;14.09;100.00;96208.84;1027775;28;20027;-73
2022/08/11 02:54:31;;;;;;;4.97;2.92;;;;;;;14.07;100.00;96204.91;1030690;28;20023;-72
2022/08/11 02:55:20;;;;;;;7.03;2.95;;;;;;;14.02;100.00;96202.31;1031196;28;20618;-72
2022/08/11 02:55:59;;;;;;;4.72;3.10;;;;;;;14.00;100.00;96196.50;1035378;28;20033;-72
2022/08/11 02:56:43;;;;;;;5.90;2.75;;;;;;;14.05;100.00;96202.53;1034813;28;20412;-71
2022/08/11 02:57:52;;;;;;;5.85;3.38;;;;;;;14.02;100.00;96208.38;1034876;28;20030;-72
2022/08/11 02:58:25;;;;;;;5.25;2.72;;;;;;;14.00;100.00;96205.19;1026105;28;20151;-73
2022/08/11 03:00:10;;;;;;;6.50;3.00;;;;;;;13.93;100.00;96190.72;1021254;29;20022;-71
2022/08/11 03:01:10;;;;;;;4.20;2.88;;;;;;;14.01;100.00;96200.69;1026430;28;20457;-72
2022/08/11 03:02:01;;;;;;;4.55;3.22;;;;;;;14.00;100.00;96205.19;1029148;28;20377;-72
2022/08/11 03:02:53;;;;;;;7.45;3.00;;;;;;;13.94;100.00;96194.94;1026377;28;20015;-72
2022/08/11 03:03:29;;;;;;;3.28;2.90;;;;;;;14.00;100.00;96205.19;1026854;28;20029;-72
2022/08/11 03:04:06;;;;;;;6.18;3.17;;;;;;;13.93;100.00;96198.66;1022861;29;20051;-72
2022/08/11 03:04:48;;;;;;;9.45;2.90;;;;;;;13.97;100.00;96205.75;1022997;28;20031;-72
2022/08/11 03:05:42;;;;;;;4.53;2.97;;;;;;;13.98;100.00;96206.53;1015177;29;20399;-72
2022/08/11 03:06:26;;;;;;;3.95;3.17;;;;;;;13.93;100.00;96204.72;1020315;28;20050;-72
2022/08/11 03:07:13;;;;;;;5.32;3.17;;;;;;;13.90;100.00;96195.47;1026393;28;20082;-72
2022/08/11 03:07:59;;;;;;;7.28;3.38;;;;;;;13.89;100.00;96199.19;1030978;28;20595;-73
2022/08/11 03:08:50;;;;;;;4.82;3.13;;;;;;;13.93;100.00;96210.00;1026692;28;20497;-72
2022/08/11 03:09:28;;;;;;;;;;;;;;;13.93;100.00;96209.19;1021985;29;20034;-73
2022/08/11 03:10:05;;;;;;;6.15;3.20;;;;;;;13.91;100.00;96207.59;1021061;28;19932;-72
2022/08/11 03:16:52;;;;;;;6.03;2.95;;;;;;;13.79;100.00;96203.72;1018748;29;20040;-72
2022/08/11 03:17:36;;;;;;;3.78;2.75;;;;;;;13.78;100.00;96202.94;1011354;29;20096;-72
2022/08/11 03:18:25;;;;;;;4.40;3.05;;;;;;;13.82;100.00;96203.97;1022328;29;20024;-71
2022/08/11 03:19:21;;;;;;;4.68;3.10;;;;;;;13.83;100.00;96205.53;1023844;28;20031;-71
2022/08/11 03:20:42;;;;;;;5.75;3.10;;;;;;;13.88;100.00;96207.34;1031956;28;20102;-72
2022/08/11 03:21:23;;;;;;;3.85;3.35;;;;;;;13.91;100.00;96204.97;1030297;28;20026;-72
2022/08/11 03:22:12;;;;;;;5.15;3.05;;;;;;;13.95;100.00;96202.59;1031288;28;20027;-72
2022/08/11 03:23:13;;;;;;;6.35;2.90;;;;;;;13.92;100.00;96208.41;1035611;28;20080;-72
2022/08/11 03:24:12;;;;;;;6.78;2.92;;;;;;;13.90;100.00;96208.69;1031491;28;20033;-72
2022/08/11 03:25:08;;;;;;;5.57;2.92;;;;;;;13.90;100.00;96206.03;1029613;28;20038;-72
2022/08/11 03:26:02;;;;;;;5.55;3.10;;;;;;;13.85;100.00;96200.81;1034772;28;20040;-72
2022/08/11 03:27:09;;;;;;;4.95;3.08;;;;;;;13.86;100.00;96199.72;1027601;28;20045;-72
2022/08/11 03:28:17;;;;;;;6.65;3.63;;;;;;;13.90;100.00;96207.88;1021659;29;20122;-70
2022/08/11 03:29:11;;;;;;;6.90;3.38;;;;;;;13.91;100.00;96204.19;1024117;28;20039;-72
2022/08/11 03:30:11;;;;;;;9.35;3.47;;;;;;;13.93;100.00;96206.56;1023237;28;20023;-70
2022/08/11 03:31:46;;;;;;;5.18;3.00;;;;;;;13.96;100.00;96206.03;1031562;28;20018;-71
2022/08/11 03:32:32;;;;;;;41.85;7.25;;;;;;;13.98;100.00;96207.31;1014583;29;20044;-72
2022/08/11 03:34:16;;;;;;;14.32;4.80;;;;;;;13.99;100.00;96201.00;1010582;29;20095;-70
2022/08/11 03:34:47;;;;;;;6.03;3.10;;;;;;;13.94;100.00;96189.66;1020065;29;20039;-71
2022/08/11 03:35:17;;;;;;;11.65;3.75;;;;;;;14.01;100.00;96195.44;1021965;29;20561;-72
2022/08/11 03:35:56;;;;;;;4.50;3.35;;;;;;;14.00;100.00;96199.13;1017204;29;20114;-72
2022/08/11 03:36:30;;;;;;;6.35;3.40;;;;;;;13.99;100.00;96197.56;1010976;29;20032;-72
2022/08/11 03:37:03;;;;;;;4.35;3.65;;;;;;;14.01;100.00;96198.06;1018756;29;20035;-72
2022/08/11 03:37:49;;;;;;;6.82;3.40;;;;;;;14.03;100.00;96198.59;1024446;28;20024;-71
2022/08/11 03:38:19;;;;;;;5.78;3.40;;;;;;;14.05;100.00;96193.81;1027151;28;20027;-72
2022/08/11 03:39:04;;;;;;;5.82;3.10;;;;;;;14.05;100.00;96199.91;1024219;28;20023;-71
2022/08/11 03:39:44;;;;;;;3.80;3.00;;;;;;;14.09;100.00;96198.28;1026739;28;20031;-71
2022/08/11 03:41:41;;;;;;;7.53;4.03;;;;;;;14.08;100.00;96201.19;1026365;28;20050;-72
2022/08/11 03:41:43;;;;;;;4.30;2.90;;;;;;;14.09;100.00;96187.72;1028931;28;20057;-71
2022/08/11 03:42:32;;;;;;;5.63;3.22;;;;;;;14.13;100.00;96193.25;1026836;28;20484;-71
2022/08/11 03:43:06;;;;;;;4.38;3.08;;;;;;;14.14;100.00;96200.09;1030316;28;20029;-74
2022/08/11 03:44:00;;;;;;;3.95;3.00;;;;;;;14.14;100.00;96198.25;1029502;28;20034;-72
2022/08/11 03:44:37;;;;;;;7.10;3.33;;;;;;;14.17;100.00;96190.84;1019200;29;20122;-72
2022/08/11 03:45:19;;;;;;;9.93;3.38;;;;;;;14.17;100.00;96202.19;1018610;29;20045;-72
2022/08/11 03:46:09;;;;;;;4.72;2.95;;;;;;;14.21;100.00;96197.94;1030856;28;20093;-71
2022/08/11 03:46:55;;;;;;;9.88;3.80;;;;;;;14.19;100.00;96188.75;1032926;28;20034;-72
2022/08/11 03:47:30;;;;;;;6.15;3.30;;;;;;;14.24;100.00;96205.31;1030707;28;20027;-72
2022/08/11 03:48:24;;;;;;;6.50;3.30;;;;;;;14.16;100.00;96192.72;1018729;29;20027;-72
2022/08/11 03:48:57;;;;;;;10.13;3.72;;;;;;;14.19;100.00;96202.72;1018916;29;20035;-72
2022/08/11 03:50:00;;;;;;;6.45;3.10;;;;;;;14.17;100.00;96194.28;1022589;29;20035;-72
2022/08/11 03:51:02;;;;;;;3.28;2.97;;;;;;;14.23;100.00;96198.47;1026159;28;20023;-73
2022/08/11 03:52:03;;;;;;;5.93;3.22;;;;;;;14.19;100.00;96194.81;1031117;28;20026;-72
2022/08/11 03:53:15;;;;;;;8.93;3.55;;;;;;;14.23;100.00;96198.47;1034636;28;20025;-72
2022/08/11 03:53:59;;;;;;;7.78;3.85;;;;;;;14.21;100.00;96195.31;1018405;29;20035;-71